메인 페이지
METAR-TAF:

METAR-TAF

공항 :

니노이 아키노 국제공항

마닐라, 필리핀

위도: 14-31N, 경도: 121-00E, 고도: 14m

현재 날씨관측

예보는 45분 전, 17:00시(UTC)에 발표되었습니다.
동남동3kt풍과 남동풍을 오가는
온도 29°C
습도 70%
기압 1011 hPa
시정 10km 이상
고도 2500ft 상공 구름 조금

METAR: RPLL 311700Z 11003KT 080V140 9999 FEW025 29/23 Q1011 NOSIG RMK A2985

시각: 01:45 (17:45 UTC)

예보

예보는 45분 전, 17:00시(UTC)에 발표되었습니다.
예보 대상 시간: 31일 18시부터 01일 24시까지 (UTC)
동남동6kt
시정 10km 이상
고도 2500ft 상공 구름 조금
고도 30000ft 상공 구름 보통
일시적
31일 18시부터 31일 24시까지 (UTC)
여러 방향의 바람 2kt
고도 2300ft 상공 구름 조금
고도 10000ft 상공 구름 보통
일시적
01일 06시부터 01일 12시까지 (UTC)
남동12kt
고도 2200ft 상공 구름 조금, 적란운.
고도 2300ft 상공 구름 보통

TAF: RPLL 311700Z 3118/0124 12006KT 9999 FEW025 SCT300 TX35/0106Z TN28/3121Z TEMPO 3118/3124 VRB02KT FEW023 SCT100 TEMPO 0106/0112 13012KT FEW022CB SCT023

4,000개 이상의 공항 관측 자료 및 예보 (METAR 및 TAF 보고).

지도상에서 검색 가능한 기상관측소가 노란 점과 빨간 점으로 표시되어 있습니다.

기상관측소 명을 보려면 표시 위로 마우스를 이동하세요.

날씨 관측과 예보를 보려면 클릭하세요.

지도 변경 : 확대하려면 엑스 표시가 있는 녹색 버튼, 축소하려면 빼기 표시가 있는 녹색 버튼, 다음 페이지의 지도를 보려면 녹색 화살표를 클릭하세요.


METAR-TAF: